Arthog, United Kingdom
Current Conditions -  °F | °C
As of 6:50 PM on Friday 24 Oct 2014 (Local Time) from EGOV Reporting Station
Scattered Clouds Scattered Clouds  
Wind Chill: 54°   Ceiling: Unl
Heat Index: 54°   Visibility: 6mi
Dew Point: 43°   Wind: 15mph
Humidity: 67%   Direction: 250°WSW
Pressure: 29.88"   Gusts: NA
Location:  52.71°N, 4.01°W
Report Text: EGOV 241750Z AUTO 25013KT 9999 SCT060/// 12/06 Q1012
Loading
Personal Weather Stations






























Interactive Weather Map
Tropical Storm Tracking
New forecast layout! Learn more

10-Day Weather Forecast

Advertisements
Track Severe Weather on mobile